createdAt,value
2022-08-09T00:01:14.386Z,1007.6
2022-08-09T00:04:34.473Z,1007.6
2022-08-09T00:07:23.770Z,1007.6
2022-08-09T00:10:29.068Z,1007.6
2022-08-09T00:13:34.380Z,1007.5
2022-08-09T00:16:03.050Z,1007.5
2022-08-09T00:18:31.355Z,1007.5
2022-08-09T00:21:36.201Z,1007.5
2022-08-09T00:24:04.397Z,1007.5
2022-08-09T00:26:33.312Z,1007.5
2022-08-09T00:29:39.977Z,1007.5
2022-08-09T00:32:06.251Z,1007.5
2022-08-09T00:34:34.495Z,1007.5
2022-08-09T00:36:54.538Z,1007.5
2022-08-09T00:40:02.008Z,1007.5
2022-08-09T00:44:08.640Z,1007.5
2022-08-09T00:45:34.581Z,1007.4
2022-08-09T00:48:01.671Z,1007.5
2022-08-09T00:50:29.913Z,1007.5
2022-08-09T00:53:36.208Z,1007.5
2022-08-09T00:56:05.494Z,1007.5
2022-08-09T00:58:31.803Z,1007.5
2022-08-09T01:01:44.528Z,1007.5
2022-08-09T01:04:05.277Z,1007.5
2022-08-09T01:06:35.302Z,1007.5
2022-08-09T01:09:01.908Z,1007.5
2022-08-09T01:11:29.989Z,1007.5
2022-08-09T01:14:35.325Z,1007.5
2022-08-09T01:17:03.553Z,1007.5
2022-08-09T01:19:40.344Z,1007.5
2022-08-09T01:22:37.148Z,1007.5
2022-08-09T01:25:05.381Z,1007.5
2022-08-09T01:27:33.647Z,1007.5
2022-08-09T01:30:02.097Z,1007.5
2022-08-09T01:32:33.956Z,1007.6
2022-08-09T01:35:29.281Z,1007.5
2022-08-09T01:38:32.582Z,1007.6
2022-08-09T01:41:37.814Z,1007.5
2022-08-09T01:44:06.067Z,1007.6
2022-08-09T01:46:34.398Z,1007.6
2022-08-09T01:49:09.911Z,1007.6
2022-08-09T01:51:32.082Z,1007.5
2022-08-09T01:55:13.208Z,1007.6
2022-08-09T01:58:18.534Z,1007.5
2022-08-09T02:01:30.715Z,1007.6
2022-08-09T02:04:29.176Z,1007.5
2022-08-09T02:08:36.399Z,1007.5
2022-08-09T02:10:03.744Z,1007.6
2022-08-09T02:12:30.964Z,1007.6
2022-08-09T02:15:49.125Z,1007.6
2022-08-09T02:18:10.128Z,1007.6
2022-08-09T02:20:34.160Z,1007.7
2022-08-09T02:23:00.987Z,1007.7
2022-08-09T02:25:29.265Z,1007.7
2022-08-09T02:28:34.546Z,1007.7
2022-08-09T02:31:02.832Z,1007.8
2022-08-09T02:33:38.524Z,1007.8
2022-08-09T02:36:28.194Z,1007.8
2022-08-09T02:39:39.937Z,1007.8
2022-08-09T02:42:01.751Z,1007.8
2022-08-09T02:44:30.286Z,1007.8
2022-08-09T02:47:46.231Z,1007.7
2022-08-09T02:50:03.535Z,1007.8
2022-08-09T02:52:32.000Z,1007.8
2022-08-09T02:55:46.952Z,1007.7
2022-08-09T02:58:32.177Z,1007.7
2022-08-09T03:00:33.641Z,1007.8
2022-08-09T03:03:01.905Z,1007.7
2022-08-09T03:05:34.303Z,1007.7
2022-08-09T03:08:35.378Z,1007.8
2022-08-09T03:11:03.649Z,1007.7
2022-08-09T03:13:43.590Z,1007.7
2022-08-09T03:16:41.142Z,1007.7
2022-08-09T03:19:05.850Z,1007.7
2022-08-09T03:21:36.299Z,1007.7
2022-08-09T03:24:04.221Z,1007.7
2022-08-09T03:26:31.871Z,1007.7
2022-08-09T03:29:35.686Z,1007.7
2022-08-09T03:32:03.787Z,1007.7
2022-08-09T03:34:23.836Z,1007.8
2022-08-09T03:37:54.906Z,1007.8
2022-08-09T03:40:34.416Z,1007.8
2022-08-09T03:43:02.744Z,1007.8
2022-08-09T03:46:03.535Z,1007.8
2022-08-09T03:48:36.247Z,1007.9
2022-08-09T03:51:04.764Z,1007.9
2022-08-09T03:53:37.075Z,1008
2022-08-09T03:56:01.003Z,1008
2022-08-09T03:58:29.242Z,1008
2022-08-09T04:01:34.530Z,1008
2022-08-09T04:04:04.809Z,1008.1
2022-08-09T04:06:31.043Z,1008
2022-08-09T04:09:42.261Z,1008
2022-08-09T04:12:04.604Z,1008.1
2022-08-09T04:14:37.841Z,1008.1
2022-08-09T04:17:01.137Z,1008.1
2022-08-09T04:19:30.209Z,1008.2
2022-08-09T04:22:34.691Z,1008.2
2022-08-09T04:25:03.176Z,1008.2
2022-08-09T04:27:31.155Z,1008.3
2022-08-09T04:30:36.478Z,1008.2
2022-08-09T04:33:04.708Z,1008.2
2022-08-09T04:36:01.828Z,1008.3
2022-08-09T04:38:30.068Z,1008.3
2022-08-09T04:41:43.504Z,1008.3
2022-08-09T04:44:05.392Z,1008.3
2022-08-09T04:46:37.565Z,1008.3
2022-08-09T04:49:41.051Z,1008.4
2022-08-09T04:52:05.443Z,1008.3
2022-08-09T04:54:33.729Z,1008.4
2022-08-09T04:57:03.736Z,1008.4
2022-08-09T04:59:30.318Z,1008.4
2022-08-09T05:02:35.477Z,1008.4
2022-08-09T05:05:04.231Z,1008.4
2022-08-09T05:07:32.291Z,1008.4
2022-08-09T05:10:01.933Z,1008.5
2022-08-09T05:12:28.518Z,1008.5
2022-08-09T05:15:38.867Z,1008.5
2022-08-09T05:18:37.214Z,1008.6
2022-08-09T05:20:30.545Z,1008.6
2022-08-09T05:23:51.373Z,1008.6
2022-08-09T05:26:03.839Z,1008.6
2022-08-09T05:28:32.114Z,1008.7
2022-08-09T05:31:44.893Z,1008.7
2022-08-09T05:34:05.657Z,1008.7
2022-08-09T05:36:26.407Z,1008.8
2022-08-09T05:39:35.986Z,1008.8
2022-08-09T05:42:36.611Z,1008.8
2022-08-09T05:45:04.596Z,1008.8
2022-08-09T05:47:33.338Z,1008.9
2022-08-09T05:50:50.890Z,1008.9
2022-08-09T05:53:06.418Z,1008.9
2022-08-09T05:55:34.652Z,1008.9
2022-08-09T05:58:02.861Z,1008.9
2022-08-09T06:00:33.054Z,1008.9
2022-08-09T06:03:43.854Z,1009
2022-08-09T06:06:06.237Z,1008.9
2022-08-09T06:08:32.948Z,1008.9
2022-08-09T06:11:01.193Z,1009
2022-08-09T06:13:34.048Z,1009.1
2022-08-09T06:16:34.750Z,1009.1
2022-08-09T06:19:02.979Z,1009
2022-08-09T06:21:31.266Z,1009.1
2022-08-09T06:24:36.575Z,1009.1
2022-08-09T06:27:04.823Z,1009.1
2022-08-09T06:29:33.035Z,1009.1
2022-08-09T06:32:09.114Z,1009.1
2022-08-09T06:34:29.785Z,1009.1
2022-08-09T06:37:28.883Z,1009.1
2022-08-09T06:40:32.020Z,1009.1
2022-08-09T06:43:37.332Z,1009.2
2022-08-09T06:46:10.618Z,1009.2
2022-08-09T06:48:33.809Z,1009.2
2022-08-09T06:51:04.535Z,1009.2
2022-08-09T06:53:33.111Z,1009.2
2022-08-09T06:56:35.584Z,1009.3
2022-08-09T07:00:47.959Z,1009.2
2022-08-09T07:01:35.552Z,1009.2
2022-08-09T07:04:01.791Z,1009.3
2022-08-09T07:06:29.697Z,1009.3
2022-08-09T07:09:53.856Z,1009.3
2022-08-09T07:12:02.126Z,1009.2
2022-08-09T07:14:30.388Z,1009.1
2022-08-09T07:17:39.600Z,1009.3
2022-08-09T07:20:03.974Z,1009.3
2022-08-09T07:22:34.513Z,1009.3
2022-08-09T07:25:00.440Z,1009.4
2022-08-09T07:27:33.731Z,1009.3
2022-08-09T07:30:34.006Z,1009.4
2022-08-09T07:33:02.291Z,1009.3
2022-08-09T07:35:30.476Z,1009.2
2022-08-09T07:38:31.133Z,1009.4
2022-08-09T07:41:38.764Z,1009.4
2022-08-09T07:44:01.149Z,1009.4
2022-08-09T07:46:29.443Z,1009.4
2022-08-09T07:49:34.740Z,1009.4
2022-08-09T07:52:09.874Z,1009.4
2022-08-09T07:54:31.291Z,1009.4
2022-08-09T07:57:36.549Z,1009.4
2022-08-09T08:00:04.779Z,1009.4
2022-08-09T08:02:33.437Z,1009.4
2022-08-09T08:05:01.283Z,1009.3
2022-08-09T08:08:44.879Z,1009.4
2022-08-09T08:10:34.871Z,1009.4
2022-08-09T08:13:03.818Z,1009.4
2022-08-09T08:15:35.291Z,1009.4
2022-08-09T08:18:36.672Z,1009.4
2022-08-09T08:21:04.906Z,1009.4
2022-08-09T08:23:34.931Z,1009.4
2022-08-09T08:26:06.770Z,1009.4
2022-08-09T08:28:32.523Z,1009.5
2022-08-09T08:31:39.523Z,1009.5
2022-08-09T08:34:03.218Z,1009.5
2022-08-09T08:36:31.433Z,1009.5
2022-08-09T08:39:28.708Z,1009.4
2022-08-09T08:42:34.015Z,1009.5
2022-08-09T08:45:12.020Z,1009.4
2022-08-09T08:47:30.365Z,1009.4
2022-08-09T08:50:35.672Z,1009.4
2022-08-09T08:53:04.277Z,1009.4
2022-08-09T08:55:32.384Z,1009.4
2022-08-09T08:58:37.639Z,1009.5
2022-08-09T09:01:08.804Z,1009.6
2022-08-09T09:03:37.398Z,1009.5
2022-08-09T09:06:04.451Z,1009.5
2022-08-09T09:08:31.732Z,1009.3
2022-08-09T09:11:38.590Z,1009.6
2022-08-09T09:14:04.042Z,1009.5
2022-08-09T09:16:33.971Z,1009.5
2022-08-09T09:19:40.992Z,1009.6
2022-08-09T09:22:07.558Z,1009.6
2022-08-09T09:24:34.520Z,1009.5
2022-08-09T09:27:02.375Z,1009.5
2022-08-09T09:29:40.877Z,1009.3
2022-08-09T09:32:36.121Z,1009.5
2022-08-09T09:35:07.718Z,1009.4
2022-08-09T09:38:01.248Z,1009.4
2022-08-09T09:40:29.594Z,1009.4
2022-08-09T09:43:41.153Z,1009.4
2022-08-09T09:48:31.323Z,1009.4
2022-08-09T09:51:38.289Z,1009.4
2022-08-09T09:54:14.211Z,1009.4
2022-08-09T09:56:33.634Z,1009.3
2022-08-09T09:59:01.365Z,1009.3
2022-08-09T10:01:30.362Z,1009.3
2022-08-09T10:04:35.007Z,1009.3
2022-08-09T10:07:03.726Z,1009.3
2022-08-09T10:09:31.435Z,1009.2
2022-08-09T10:12:36.755Z,1009.2
2022-08-09T10:15:04.990Z,1009.2
2022-08-09T10:17:40.791Z,1009.2
2022-08-09T10:20:01.505Z,1009.2
2022-08-09T10:22:32.602Z,1009.2
2022-08-09T10:26:04.745Z,1009.1
2022-08-09T10:29:13.769Z,1009.1
2022-08-09T10:34:09.291Z,1009.1
2022-08-09T10:36:05.090Z,1009.1
2022-08-09T10:38:34.167Z,1009.1
2022-08-09T10:40:53.507Z,1009.1
2022-08-09T10:43:21.727Z,1009.1
2022-08-09T10:46:26.966Z,1009
2022-08-09T10:49:42.644Z,1009
2022-08-09T10:52:00.517Z,1009
2022-08-09T10:54:28.828Z,1008.9
2022-08-09T10:57:34.360Z,1008.9
2022-08-09T11:00:02.328Z,1008.9
2022-08-09T11:03:05.728Z,1008.6
2022-08-09T11:05:36.812Z,1008.8
2022-08-09T11:08:04.181Z,1008.8
2022-08-09T11:10:32.397Z,1008.8
2022-08-09T11:13:51.532Z,1008.9
2022-08-09T11:16:06.576Z,1008.9
2022-08-09T11:18:34.213Z,1008.9
2022-08-09T11:21:02.431Z,1008.8
2022-08-09T11:23:30.703Z,1008.7
2022-08-09T11:26:36.019Z,1008.9
2022-08-09T11:29:04.310Z,1008.9
2022-08-09T11:31:33.681Z,1008.8
2022-08-09T11:34:37.849Z,1008.8
2022-08-09T11:38:11.991Z,1008.7
2022-08-09T11:41:17.316Z,1008.7
2022-08-09T11:44:22.669Z,1008.7
2022-08-09T11:47:27.918Z,1008.7
2022-08-09T11:50:52.772Z,1008.6
2022-08-09T11:53:16.084Z,1008.6
2022-08-09T11:55:34.751Z,1008.5
2022-08-09T11:58:35.062Z,1008.5
2022-08-09T12:01:03.331Z,1008.5
2022-08-09T12:03:50.631Z,1008.5
2022-08-09T12:06:36.849Z,1008.5
2022-08-09T12:09:05.125Z,1008.5
2022-08-09T12:11:37.146Z,1008.5
2022-08-09T12:14:08.798Z,1008.6
2022-08-09T12:16:30.895Z,1008.5
2022-08-09T12:19:35.186Z,1008.5
2022-08-09T12:22:03.454Z,1008.5
2022-08-09T12:24:31.642Z,1008.5
2022-08-09T12:29:01.068Z,1008.4
2022-08-09T12:30:37.111Z,1008.5
2022-08-09T12:33:10.808Z,1008.4
2022-08-09T12:36:27.900Z,1008.4
2022-08-09T12:38:37.919Z,1008.3
2022-08-09T12:41:04.185Z,1008.3
2022-08-09T12:44:04.612Z,1008.3
2022-08-09T12:46:37.752Z,1008.3
2022-08-09T12:49:05.957Z,1008.3
2022-08-09T12:51:53.018Z,1008.3
2022-08-09T12:54:02.458Z,1008.3
2022-08-09T12:56:39.782Z,1008
2022-08-09T12:59:39.917Z,1008.3
2022-08-09T13:02:04.296Z,1008.2
2022-08-09T13:04:37.314Z,1008.2
2022-08-09T13:07:00.763Z,1008.2
2022-08-09T13:09:30.442Z,1008.2
2022-08-09T13:12:34.506Z,1008.1
2022-08-09T13:15:02.584Z,1008.2
2022-08-09T13:17:44.774Z,1007.9
2022-08-09T13:20:37.088Z,1008.1
2022-08-09T13:23:05.914Z,1008.1
2022-08-09T13:25:32.645Z,1008
2022-08-09T13:28:39.519Z,1008
2022-08-09T13:31:11.677Z,1008
2022-08-09T13:33:36.097Z,1007.9
2022-08-09T13:36:23.754Z,1007.9
2022-08-09T13:38:33.163Z,1007.8
2022-08-09T13:41:51.765Z,1007.8
2022-08-09T13:44:33.354Z,1007.8
2022-08-09T13:47:18.280Z,1007.8
2022-08-09T13:49:38.263Z,1007.8
2022-08-09T13:52:35.412Z,1007.7
2022-08-09T13:55:04.817Z,1007.8
2022-08-09T13:57:36.048Z,1007.8
2022-08-09T14:00:42.917Z,1007.8
2022-08-09T14:03:17.288Z,1007.8
2022-08-09T14:05:57.638Z,1007.7
2022-08-09T14:08:03.641Z,1007.7
2022-08-09T14:10:37.813Z,1007.7
2022-08-09T14:14:16.674Z,1007.8
2022-08-09T14:16:07.451Z,1007.8
2022-08-09T14:18:32.074Z,1007.7
2022-08-09T14:21:37.129Z,1007.7
2022-08-09T14:24:10.565Z,1007.7
2022-08-09T14:26:34.105Z,1007.7
2022-08-09T14:29:01.836Z,1008.4
2022-08-09T14:32:10.995Z,1007.6
2022-08-09T14:34:35.392Z,1007.6
2022-08-09T14:37:06.379Z,1007.6
2022-08-09T14:39:40.650Z,1007.6
2022-08-09T14:42:32.278Z,1007.5
2022-08-09T14:46:39.290Z,1007.5
2022-08-09T14:48:03.602Z,1007.5
2022-08-09T14:50:31.171Z,1007.3
2022-08-09T14:53:38.857Z,1007.5
2022-08-09T14:56:04.391Z,1007.5
2022-08-09T14:58:32.601Z,1007.5
2022-08-09T15:02:14.991Z,1007.5
2022-08-09T15:06:34.425Z,1007.5
2022-08-09T15:09:02.694Z,1007.5
2022-08-09T15:11:30.898Z,1007.2
2022-08-09T15:14:38.133Z,1007.4
2022-08-09T15:17:04.686Z,1007.4
2022-08-09T15:19:35.905Z,1007.5
2022-08-09T15:22:46.615Z,1007.4
2022-08-09T15:25:06.289Z,1007.4
2022-08-09T15:27:47.548Z,1007.5
2022-08-09T15:30:49.286Z,1007.4
2022-08-09T15:32:31.054Z,1007.3
2022-08-09T15:35:40.530Z,1007.3
2022-08-09T15:38:11.453Z,1007.4
2022-08-09T15:40:33.505Z,1007.4
2022-08-09T15:43:36.996Z,1007.4
2022-08-09T15:46:35.345Z,1007.3
2022-08-09T15:49:21.472Z,1007.3
2022-08-09T15:51:44.788Z,1007.3
2022-08-09T15:54:42.624Z,1007.2
2022-08-09T15:57:07.374Z,1007.2
2022-08-09T15:59:36.689Z,1007.3
2022-08-09T16:02:01.874Z,1007.6
2022-08-09T16:05:07.150Z,1007.3
2022-08-09T16:07:38.764Z,1007.3
2022-08-09T16:10:05.028Z,1007.3
2022-08-09T16:12:32.240Z,1007.2
2022-08-09T16:16:04.149Z,1007.2
2022-08-09T16:18:05.450Z,1007.1
2022-08-09T16:20:33.686Z,1007.2
2022-08-09T16:23:02.068Z,1007.2
2022-08-09T16:25:30.522Z,1007.2
2022-08-09T16:28:35.510Z,1007.2
2022-08-09T16:31:03.739Z,1007.2
2022-08-09T16:33:35.103Z,1007.2
2022-08-09T16:36:37.279Z,1007.1
2022-08-09T16:39:05.618Z,1007.2
2022-08-09T16:41:39.462Z,1007.1
2022-08-09T16:44:31.583Z,1006.9
2022-08-09T16:48:37.414Z,1007.1
2022-08-09T16:50:28.599Z,1007.1
2022-08-09T16:52:32.997Z,1007.1
2022-08-09T16:55:44.585Z,1007.1
2022-08-09T16:58:08.358Z,1007.1
2022-08-09T17:00:34.563Z,1007.1
2022-08-09T17:03:02.791Z,1007.1
2022-08-09T17:06:03.032Z,1006.9
2022-08-09T17:08:42.032Z,1007.2
2022-08-09T17:11:04.596Z,1007.1
2022-08-09T17:13:34.263Z,1007.2
2022-08-09T17:16:02.149Z,1007.2
2022-08-09T17:18:29.857Z,1007.2
2022-08-09T17:21:34.646Z,1007.2
2022-08-09T17:24:20.385Z,1007.3
2022-08-09T17:26:31.442Z,1007.2
2022-08-09T17:30:14.294Z,1007.1
2022-08-09T17:33:22.121Z,1007.2
2022-08-09T17:36:24.159Z,1007.2
2022-08-09T17:39:48.209Z,1007.2
2022-08-09T17:42:40.653Z,1007.2
2022-08-09T17:45:37.482Z,1007.3
2022-08-09T17:48:38.412Z,1007.2
2022-08-09T17:51:06.628Z,1007.2
2022-08-09T17:53:33.670Z,1007.2
2022-08-09T17:56:06.085Z,1007.2
2022-08-09T17:59:08.809Z,1007.3
2022-08-09T18:01:41.033Z,1007.3
2022-08-09T18:04:03.767Z,1007.3
2022-08-09T18:06:32.918Z,1007.3
2022-08-09T18:09:40.804Z,1007.3
2022-08-09T18:12:15.543Z,1007.3
2022-08-09T18:14:33.786Z,1007.4
2022-08-09T18:17:02.076Z,1007.3
2022-08-09T18:20:53.160Z,1007.3
2022-08-09T18:22:35.630Z,1007.3
2022-08-09T18:25:03.851Z,1007.3
2022-08-09T18:27:49.348Z,1007.3
2022-08-09T18:30:48.317Z,1007.4
2022-08-09T18:33:06.429Z,1007.4
2022-08-09T18:35:40.027Z,1007.5
2022-08-09T18:38:02.175Z,1007.4
2022-08-09T18:40:30.412Z,1007.4
2022-08-09T18:43:27.517Z,1007.5
2022-08-09T18:46:45.861Z,1007.5
2022-08-09T18:49:01.054Z,1007.5
2022-08-09T18:51:37.944Z,1007.6
2022-08-09T18:54:52.923Z,1007.6
2022-08-09T18:57:05.635Z,1007.3
2022-08-09T19:00:08.202Z,1007.7
2022-08-09T19:02:36.655Z,1007.7
2022-08-09T19:05:15.060Z,1007.7
2022-08-09T19:07:32.961Z,1007.7
2022-08-09T19:10:38.879Z,1007.7
2022-08-09T19:13:22.769Z,1007.7
2022-08-09T19:15:34.724Z,1007.8
2022-08-09T19:18:03.028Z,1007.7
2022-08-09T19:20:33.803Z,1007.8
2022-08-09T19:24:33.709Z,1007.9
2022-08-09T19:27:18.907Z,1007.8
2022-08-09T19:30:27.985Z,1007.8
2022-08-09T19:33:29.574Z,1007.8
2022-08-09T19:36:34.843Z,1007.9
2022-08-09T19:39:03.497Z,1007.9
2022-08-09T19:41:32.817Z,1007.9
2022-08-09T19:44:28.469Z,1007.9
2022-08-09T19:47:34.129Z,1007.9
2022-08-09T19:50:05.453Z,1007.9
2022-08-09T19:52:30.263Z,1007.9
2022-08-09T19:55:53.195Z,1007.9
2022-08-09T19:58:03.847Z,1007.9
2022-08-09T20:00:32.087Z,1007.9
2022-08-09T20:04:07.910Z,1007.9
2022-08-09T20:06:05.709Z,1007.9
2022-08-09T20:08:35.207Z,1008
2022-08-09T20:11:04.054Z,1008
2022-08-09T20:13:30.378Z,1008
2022-08-09T20:16:39.559Z,1008
2022-08-09T20:19:43.284Z,1008
2022-08-09T20:21:40.885Z,1008
2022-08-09T20:24:37.530Z,1008
2022-08-09T20:27:08.503Z,1008
2022-08-09T20:29:37.183Z,1008
2022-08-09T20:32:17.219Z,1008
2022-08-09T20:34:30.520Z,1008
2022-08-09T20:37:37.010Z,1008.1
2022-08-09T20:40:14.303Z,1008
2022-08-09T20:42:32.493Z,1008.1
2022-08-09T20:45:57.932Z,1008.1
2022-08-09T20:48:34.719Z,1008.1
2022-08-09T20:51:03.330Z,1007.8
2022-08-09T20:53:36.071Z,1008.1
2022-08-09T20:57:13.601Z,1008.1
2022-08-09T21:00:21.054Z,1008.1
2022-08-09T21:03:24.226Z,1008.1
2022-08-09T21:07:11.227Z,1008.1
2022-08-09T21:09:42.196Z,1008.1
2022-08-09T21:16:22.546Z,1008.2
2022-08-09T21:20:05.458Z,1008.2
2022-08-09T21:22:36.404Z,1008.2
2022-08-09T21:25:01.389Z,1008.2
2022-08-09T21:27:50.765Z,1008.2
2022-08-09T21:30:36.908Z,1008.2
2022-08-09T21:33:03.191Z,1008.3
2022-08-09T21:35:31.765Z,1008.3
2022-08-09T21:38:36.775Z,1008.2
2022-08-09T21:41:05.058Z,1008.3
2022-08-09T21:43:31.520Z,1008.3
2022-08-09T21:46:30.405Z,1008.3
2022-08-09T21:49:38.935Z,1008.3
2022-08-09T21:52:03.969Z,1008.3
2022-08-09T21:54:32.210Z,1008.3
2022-08-09T21:57:58.417Z,1008.3
2022-08-09T22:00:05.739Z,1008.3
2022-08-09T22:02:36.607Z,1008.3
2022-08-09T22:05:10.377Z,1008.3
2022-08-09T22:07:35.605Z,1008.3
2022-08-09T22:10:35.791Z,1008.3
2022-08-09T22:13:07.169Z,1008.3
2022-08-09T22:15:33.385Z,1008.3
2022-08-09T22:18:37.720Z,1008.3
2022-08-09T22:21:09.183Z,1008.3
2022-08-09T22:23:35.274Z,1008.4
2022-08-09T22:26:04.839Z,1008.4
2022-08-09T22:28:32.776Z,1008.4
2022-08-09T22:31:36.001Z,1008.4
2022-08-09T22:34:09.599Z,1008.4
2022-08-09T22:36:37.454Z,1008.4
2022-08-09T22:39:47.450Z,1008.4
2022-08-09T22:42:34.947Z,1008.4
2022-08-09T22:48:05.273Z,1008.4
2022-08-09T22:48:07.227Z,1008.4
2022-08-09T22:51:17.985Z,1008.4
2022-08-09T22:54:21.180Z,1008.4
2022-08-09T22:57:24.315Z,1008.4
2022-08-09T23:00:29.777Z,1008.4
2022-08-09T23:04:02.989Z,1008.4
2022-08-09T23:06:03.237Z,1008.4
2022-08-09T23:08:31.682Z,1008.4
2022-08-09T23:11:36.780Z,1008.4
2022-08-09T23:14:09.696Z,1008.4
2022-08-09T23:16:33.249Z,1008.4
2022-08-09T23:20:01.213Z,1008.4
2022-08-09T23:22:06.848Z,1008.4
2022-08-09T23:24:35.967Z,1008.4
2022-08-09T23:27:03.315Z,1008.4
2022-08-09T23:29:31.563Z,1008.4
2022-08-09T23:32:36.888Z,1008.3
2022-08-09T23:35:05.129Z,1008.3
2022-08-09T23:37:33.480Z,1008.3
2022-08-09T23:40:38.695Z,1008.3
2022-08-09T23:43:35.789Z,1008.4
2022-08-09T23:46:04.063Z,1008.4
2022-08-09T23:48:32.321Z,1008.4
2022-08-09T23:51:37.636Z,1008.3
2022-08-09T23:54:05.873Z,1008.3
2022-08-09T23:56:39.959Z,1008.3
2022-08-09T23:59:02.343Z,1008.3
